Terminal Aerodrome Forecast
Issued by NWS

Home | Current Version | Previous Version | Text Only | Print | Product List | Glossary On
Versions: 1 2 3 4 5 6 7 8 9 10 11 12 13 14 15 16 17
566
FTUS43 KOAX 281300 AAB
TAFBFF
TAF AMD
KBFF 281300Z 2813/2912 10012KT 2SM -SN BR OVC012
      TEMPO 2813/2815 09009KT 1/2SM SN FG OVC007
     FM281700 06015G23KT 4SM -SN BR OVC008
     FM282200 05012KT 2SM -SN BR OVC004
     FM290000 04014KT P6SM VCSH OVC015
     FM290600 03007KT P6SM OVC015=

USA.gov is the U.S. government's official web portal to all federal, state and local government web resources and services.